createdAt,value
2023-01-23T00:01:31.232Z,97964.00
2023-01-23T00:03:58.189Z,97971.00
2023-01-23T00:06:25.335Z,97962.00
2023-01-23T00:08:52.205Z,97963.00
2023-01-23T00:11:23.252Z,97972.00
2023-01-23T00:13:50.441Z,97972.00
2023-01-23T00:16:21.007Z,97972.00
2023-01-23T00:18:48.882Z,97967.00
2023-01-23T00:21:19.702Z,97967.00
2023-01-23T00:23:50.425Z,97965.00
2023-01-23T00:26:21.489Z,97964.00
2023-01-23T00:28:48.858Z,97960.00
2023-01-23T00:31:26.681Z,97962.00
2023-01-23T00:33:57.610Z,97955.00
2023-01-23T00:36:27.431Z,97957.00
2023-01-23T00:38:54.178Z,97966.00
2023-01-23T00:41:20.973Z,97957.00
2023-01-23T00:43:48.453Z,97962.00
2023-01-23T00:46:15.282Z,97958.00
2023-01-23T00:48:42.069Z,97959.00
2023-01-23T00:51:08.932Z,97957.00
2023-01-23T00:53:35.807Z,97963.00
2023-01-23T00:56:02.573Z,97960.00
2023-01-23T00:58:29.362Z,97966.00
2023-01-23T01:00:56.202Z,97965.00
2023-01-23T01:03:25.147Z,97966.00
2023-01-23T01:05:52.666Z,97964.00
2023-01-23T01:08:19.738Z,97966.00
2023-01-23T01:10:46.519Z,97956.00
2023-01-23T01:13:13.379Z,97968.00
2023-01-23T01:15:40.155Z,97967.00
2023-01-23T01:18:07.126Z,97970.00
2023-01-23T01:20:33.855Z,97967.00
2023-01-23T01:23:00.726Z,97972.00
2023-01-23T01:25:27.979Z,97973.00
2023-01-23T01:27:56.034Z,97974.00
2023-01-23T01:30:23.188Z,97970.00
2023-01-23T01:32:50.621Z,97983.00
2023-01-23T01:35:17.478Z,97968.00
2023-01-23T01:37:44.369Z,97970.00
2023-01-23T01:40:22.805Z,97965.00
2023-01-23T01:43:01.432Z,97968.00
2023-01-23T01:46:08.178Z,97972.00
2023-01-23T01:48:55.959Z,97976.00
2023-01-23T01:51:31.196Z,97974.00
2023-01-23T01:54:47.244Z,97978.00
2023-01-23T01:57:24.208Z,97971.00
2023-01-23T02:00:00.438Z,97972.00
2023-01-23T02:02:35.621Z,97980.00
2023-01-23T02:05:11.916Z,97977.00
2023-01-23T02:08:09.399Z,97985.00
2023-01-23T02:10:37.304Z,97985.00
2023-01-23T02:13:33.701Z,97989.00
2023-01-23T02:16:05.294Z,97989.00
2023-01-23T02:18:35.153Z,97983.00
2023-01-23T02:21:07.078Z,97991.00
2023-01-23T02:23:56.080Z,97992.00
2023-01-23T02:26:32.766Z,97988.00
2023-01-23T02:29:00.226Z,97995.00
2023-01-23T02:31:27.673Z,97997.00
2023-01-23T02:33:58.328Z,97991.00
2023-01-23T02:36:30.163Z,97985.00
2023-01-23T02:39:10.014Z,97980.00
2023-01-23T02:42:04.702Z,97996.00
2023-01-23T02:44:32.381Z,97988.00
2023-01-23T02:47:05.600Z,97994.00
2023-01-23T02:49:32.525Z,97992.00
2023-01-23T02:51:59.461Z,97992.00
2023-01-23T02:54:26.730Z,97991.00
2023-01-23T02:56:53.510Z,97989.00
2023-01-23T02:59:38.706Z,97994.00
2023-01-23T03:02:06.205Z,97995.00
2023-01-23T03:04:33.132Z,97990.00
2023-01-23T03:07:00.323Z,97986.00
2023-01-23T03:09:27.467Z,97987.00
2023-01-23T03:11:54.333Z,97985.00
2023-01-23T03:14:23.382Z,97989.00
2023-01-23T03:16:51.546Z,97990.00
2023-01-23T03:19:23.069Z,97994.00
2023-01-23T03:21:50.153Z,97981.00
2023-01-23T03:24:17.511Z,97972.00
2023-01-23T03:26:47.101Z,97975.00
2023-01-23T03:29:40.058Z,97974.00
2023-01-23T03:32:08.106Z,97967.00
2023-01-23T03:34:35.465Z,97977.00
2023-01-23T03:37:03.363Z,97975.00
2023-01-23T03:39:49.102Z,97975.00
2023-01-23T03:42:15.902Z,97972.00
2023-01-23T03:44:42.737Z,97959.00
2023-01-23T03:47:10.136Z,97961.00
2023-01-23T03:49:37.056Z,97960.00
2023-01-23T03:52:04.454Z,97959.00
2023-01-23T03:54:31.328Z,97949.00
2023-01-23T03:56:58.152Z,97944.00
2023-01-23T03:59:25.154Z,97949.00
2023-01-23T04:01:51.941Z,97951.00
2023-01-23T04:04:18.751Z,97965.00
2023-01-23T04:06:45.562Z,97968.00
2023-01-23T04:09:12.972Z,97973.00
2023-01-23T04:11:39.735Z,97981.00
2023-01-23T04:14:06.486Z,97986.00
2023-01-23T04:16:33.272Z,97980.00
2023-01-23T04:19:00.040Z,97977.00
2023-01-23T04:21:26.901Z,97977.00
2023-01-23T04:23:53.712Z,97974.00
2023-01-23T04:26:20.486Z,97976.00
2023-01-23T04:28:47.236Z,97979.00
2023-01-23T04:31:14.084Z,97976.00
2023-01-23T04:33:40.984Z,97972.00
2023-01-23T04:36:08.429Z,97983.00
2023-01-23T04:38:35.807Z,97972.00
2023-01-23T04:41:03.572Z,97977.00
2023-01-23T04:43:30.601Z,97982.00
2023-01-23T04:45:57.673Z,97978.00
2023-01-23T04:48:25.327Z,97988.00
2023-01-23T04:50:52.358Z,97991.00
2023-01-23T04:53:19.685Z,97981.00
2023-01-23T04:55:49.985Z,97979.00
2023-01-23T04:58:18.525Z,97979.00
2023-01-23T05:00:46.215Z,97979.00
2023-01-23T05:03:13.947Z,97976.00
2023-01-23T05:05:42.619Z,97978.00
2023-01-23T05:08:10.509Z,97980.00
2023-01-23T05:10:37.793Z,97976.00
2023-01-23T05:13:04.661Z,97972.00
2023-01-23T05:15:31.958Z,97977.00
2023-01-23T05:17:58.784Z,97975.00
2023-01-23T05:20:25.651Z,97974.00
2023-01-23T05:22:52.899Z,97987.00
2023-01-23T05:25:28.045Z,97985.00
2023-01-23T05:27:55.361Z,97984.00
2023-01-23T05:30:23.232Z,97987.00
2023-01-23T05:32:50.385Z,97986.00
2023-01-23T05:35:17.540Z,97986.00
2023-01-23T05:37:48.621Z,97987.00
2023-01-23T05:40:15.408Z,97994.00
2023-01-23T05:42:42.217Z,98002.00
2023-01-23T05:45:09.712Z,97997.00
2023-01-23T05:47:37.252Z,97992.00
2023-01-23T05:50:05.952Z,98001.00
2023-01-23T05:52:32.754Z,97999.00
2023-01-23T05:54:59.538Z,98000.00
2023-01-23T05:57:26.347Z,98005.00
2023-01-23T05:59:53.134Z,97996.00
2023-01-23T06:02:19.953Z,98003.00
2023-01-23T06:04:50.009Z,97993.00
2023-01-23T06:07:18.770Z,97990.00
2023-01-23T06:09:47.029Z,97996.00
2023-01-23T06:12:14.027Z,97984.00
2023-01-23T06:14:41.103Z,97996.00
2023-01-23T06:17:07.997Z,97984.00
2023-01-23T06:19:34.816Z,97991.00
2023-01-23T06:22:01.593Z,98001.00
2023-01-23T06:24:28.392Z,98005.00
2023-01-23T06:26:55.211Z,98011.00
2023-01-23T06:29:22.113Z,98018.00
2023-01-23T06:31:49.474Z,98010.00
2023-01-23T06:34:16.506Z,98028.00
2023-01-23T06:36:43.437Z,98025.00
2023-01-23T06:39:13.845Z,98022.00
2023-01-23T06:41:41.104Z,98032.00
2023-01-23T06:44:07.949Z,98033.00
2023-01-23T06:46:35.164Z,98045.00
2023-01-23T06:49:04.543Z,98043.00
2023-01-23T06:51:33.658Z,98043.00
2023-01-23T06:54:00.749Z,98036.00
2023-01-23T06:56:27.587Z,98040.00
2023-01-23T06:58:54.352Z,98048.00
2023-01-23T07:01:21.528Z,98046.00
2023-01-23T07:03:48.512Z,98051.00
2023-01-23T07:06:16.212Z,98047.00
2023-01-23T07:08:44.125Z,98051.00
2023-01-23T07:11:11.912Z,98062.00
2023-01-23T07:13:38.793Z,98060.00
2023-01-23T07:16:05.892Z,98059.00
2023-01-23T07:18:33.212Z,98063.00
2023-01-23T07:21:00.845Z,98061.00
2023-01-23T07:23:27.692Z,98061.00
2023-01-23T07:26:03.875Z,98055.00
2023-01-23T07:28:31.242Z,98061.00
2023-01-23T07:30:59.607Z,98057.00
2023-01-23T07:33:26.707Z,98064.00
2023-01-23T07:35:53.963Z,98060.00
2023-01-23T07:38:23.284Z,98062.00
2023-01-23T07:40:50.941Z,98062.00
2023-01-23T07:43:18.072Z,98063.00
2023-01-23T07:45:45.248Z,98067.00
2023-01-23T07:48:12.132Z,98061.00
2023-01-23T07:50:39.005Z,98057.00
2023-01-23T07:53:06.824Z,98061.00
2023-01-23T07:55:34.837Z,98066.00
2023-01-23T07:58:01.602Z,98062.00
2023-01-23T08:00:30.149Z,98064.00
2023-01-23T08:02:57.486Z,98066.00
2023-01-23T08:05:25.597Z,98066.00
2023-01-23T08:08:07.391Z,98058.00
2023-01-23T08:10:39.176Z,98053.00
2023-01-23T08:13:06.028Z,98066.00
2023-01-23T08:15:32.800Z,98056.00
2023-01-23T08:17:59.639Z,98055.00
2023-01-23T08:20:26.412Z,98054.00
2023-01-23T08:22:53.239Z,98058.00
2023-01-23T08:25:19.985Z,98060.00
2023-01-23T08:27:46.772Z,98067.00
2023-01-23T08:30:13.986Z,98064.00
2023-01-23T08:32:40.791Z,98064.00
2023-01-23T08:35:08.134Z,98071.00
2023-01-23T08:37:34.910Z,98077.00
2023-01-23T08:40:01.824Z,98071.00
2023-01-23T08:42:28.619Z,98066.00
2023-01-23T08:44:55.773Z,98063.00
2023-01-23T08:47:22.581Z,98063.00
2023-01-23T08:49:49.415Z,98068.00
2023-01-23T08:52:16.475Z,98055.00
2023-01-23T08:54:43.219Z,98065.00
2023-01-23T08:57:10.038Z,98065.00
2023-01-23T08:59:36.824Z,98072.00
2023-01-23T09:02:03.729Z,98065.00
2023-01-23T09:04:30.614Z,98058.00
2023-01-23T09:06:57.435Z,98060.00
2023-01-23T09:09:24.275Z,98050.00
2023-01-23T09:11:51.105Z,98052.00
2023-01-23T09:14:17.943Z,98053.00
2023-01-23T09:16:44.807Z,98048.00
2023-01-23T09:19:12.705Z,98043.00
2023-01-23T09:21:39.909Z,98043.00
2023-01-23T09:24:06.923Z,98053.00
2023-01-23T09:26:33.686Z,98048.00
2023-01-23T09:29:00.491Z,98039.00
2023-01-23T09:31:27.362Z,98054.00
2023-01-23T09:33:54.237Z,98050.00
2023-01-23T09:36:33.717Z,98039.00
2023-01-23T09:39:07.789Z,98042.00
2023-01-23T09:41:34.697Z,98041.00
2023-01-23T09:44:20.495Z,98049.00
2023-01-23T09:46:54.862Z,98045.00
2023-01-23T09:49:28.707Z,98034.00
2023-01-23T09:52:19.812Z,98040.00
2023-01-23T09:55:03.807Z,98043.00
2023-01-23T09:57:54.725Z,98057.00
2023-01-23T10:00:30.704Z,98051.00
2023-01-23T10:03:00.736Z,98044.00
2023-01-23T10:05:42.438Z,98048.00
2023-01-23T10:08:46.085Z,98055.00
2023-01-23T10:11:29.663Z,98050.00
2023-01-23T10:14:17.507Z,98050.00
2023-01-23T10:17:05.313Z,98049.00
2023-01-23T10:20:18.310Z,98044.00
2023-01-23T10:23:00.793Z,98043.00
2023-01-23T10:25:33.058Z,98053.00
2023-01-23T10:28:29.927Z,98044.00
2023-01-23T10:31:02.895Z,98028.00
2023-01-23T10:34:14.191Z,98021.00
2023-01-23T10:36:58.818Z,98008.00
2023-01-23T10:39:32.954Z,98013.00
2023-01-23T10:42:02.334Z,98014.00
2023-01-23T10:44:29.468Z,98018.00
2023-01-23T10:47:00.967Z,98015.00
2023-01-23T10:49:46.247Z,98029.00
2023-01-23T10:52:44.588Z,98033.00
2023-01-23T10:55:20.644Z,98034.00
2023-01-23T10:57:53.006Z,98016.00
2023-01-23T11:00:37.813Z,98014.00
2023-01-23T11:03:22.766Z,98010.00
2023-01-23T11:06:17.698Z,97997.00
2023-01-23T11:08:57.398Z,98018.00
2023-01-23T11:11:27.619Z,98014.00
2023-01-23T11:14:14.262Z,97996.00
2023-01-23T11:16:41.149Z,98011.00
2023-01-23T11:19:07.788Z,98008.00
2023-01-23T11:21:57.072Z,98006.00
2023-01-23T11:24:40.750Z,97990.00
2023-01-23T11:27:20.173Z,97992.00
2023-01-23T11:30:16.734Z,97995.00
2023-01-23T11:32:59.942Z,98002.00
2023-01-23T11:36:07.312Z,97996.00
2023-01-23T11:38:52.548Z,97986.00
2023-01-23T11:41:29.173Z,97982.00
2023-01-23T11:43:56.438Z,97986.00
2023-01-23T11:46:41.842Z,97986.00
2023-01-23T11:49:51.496Z,97980.00
2023-01-23T11:52:38.584Z,97979.00
2023-01-23T11:55:36.327Z,97980.00
2023-01-23T11:58:50.375Z,97970.00
2023-01-23T12:02:03.411Z,97969.00
2023-01-23T12:04:50.210Z,97965.00
2023-01-23T12:07:23.402Z,97963.00
2023-01-23T12:10:17.577Z,97973.00
2023-01-23T12:13:21.661Z,97959.00
2023-01-23T12:16:27.474Z,97959.00
2023-01-23T12:19:21.460Z,97965.00
2023-01-23T12:22:03.137Z,97951.00
2023-01-23T12:25:01.957Z,97964.00
2023-01-23T12:27:45.940Z,97948.00
2023-01-23T12:31:05.784Z,97936.00
2023-01-23T12:33:47.926Z,97940.00
2023-01-23T12:36:59.527Z,97941.00
2023-01-23T12:39:51.161Z,97936.00
2023-01-23T12:42:25.146Z,97927.00
2023-01-23T12:45:11.816Z,97922.00
2023-01-23T12:48:03.682Z,97924.00
2023-01-23T12:50:46.739Z,97917.00
2023-01-23T12:53:21.224Z,97924.00
2023-01-23T12:55:56.670Z,97914.00
2023-01-23T12:58:28.321Z,97916.00
2023-01-23T13:01:26.143Z,97917.00
2023-01-23T13:04:31.610Z,97908.00
2023-01-23T13:07:12.318Z,97908.00
2023-01-23T13:10:02.375Z,97908.00
2023-01-23T13:12:30.166Z,97910.00
2023-01-23T13:15:38.864Z,97915.00
2023-01-23T13:18:21.783Z,97912.00
2023-01-23T13:21:18.764Z,97903.00
2023-01-23T13:23:45.631Z,97908.00
2023-01-23T13:26:15.366Z,97915.00
2023-01-23T13:28:53.844Z,97905.00
2023-01-23T13:31:46.771Z,97915.00
2023-01-23T13:34:17.153Z,97911.00
2023-01-23T13:36:44.429Z,97911.00
2023-01-23T13:39:17.460Z,97909.00
2023-01-23T13:42:14.340Z,97907.00
2023-01-23T13:45:21.298Z,97909.00
2023-01-23T14:22:59.935Z,97899.00
2023-01-23T14:25:27.426Z,97897.00
2023-01-23T14:28:06.541Z,97903.00
2023-01-23T14:30:33.416Z,97899.00
2023-01-23T14:33:00.304Z,97886.00
2023-01-23T14:35:33.534Z,97879.00
2023-01-23T14:38:05.525Z,97894.00
2023-01-23T14:40:46.812Z,97891.00
2023-01-23T14:43:26.997Z,97894.00
2023-01-23T14:46:16.305Z,97876.00
2023-01-23T14:48:50.199Z,97883.00
2023-01-23T14:51:25.463Z,97897.00
2023-01-23T14:54:02.705Z,97901.00
2023-01-23T14:56:36.200Z,97901.00
2023-01-23T14:59:08.317Z,97899.00
2023-01-23T15:01:36.031Z,97899.00
2023-01-23T15:04:20.475Z,97907.00
2023-01-23T15:06:53.710Z,97901.00
2023-01-23T15:09:32.450Z,97898.00
2023-01-23T15:12:16.450Z,97899.00
2023-01-23T15:14:43.855Z,97899.00
2023-01-23T15:17:20.492Z,97895.00
2023-01-23T15:19:56.516Z,97893.00
2023-01-23T15:22:29.690Z,97898.00
2023-01-23T15:24:57.082Z,97894.00
2023-01-23T15:27:35.013Z,97885.00
2023-01-23T15:30:35.601Z,97897.00
2023-01-23T15:33:08.238Z,97891.00
2023-01-23T15:35:38.969Z,97896.00
2023-01-23T15:38:08.707Z,97891.00
2023-01-23T15:40:38.153Z,97897.00
2023-01-23T15:43:18.674Z,97900.00
2023-01-23T15:45:46.766Z,97893.00
2023-01-23T15:48:13.534Z,97906.00
2023-01-23T15:50:40.655Z,97916.00
2023-01-23T15:53:14.473Z,97921.00
2023-01-23T15:55:41.507Z,97910.00
2023-01-23T15:58:14.907Z,97917.00
2023-01-23T16:00:42.185Z,97923.00
2023-01-23T16:03:09.064Z,97910.00
2023-01-23T16:05:37.615Z,97913.00
2023-01-23T16:08:06.169Z,97917.00
2023-01-23T16:10:39.098Z,97917.00
2023-01-23T16:13:07.529Z,97928.00
2023-01-23T16:15:35.744Z,97927.00
2023-01-23T16:18:06.293Z,97941.00
2023-01-23T16:20:41.976Z,97930.00
2023-01-23T16:23:24.636Z,97925.00
2023-01-23T16:25:52.485Z,97935.00
2023-01-23T16:28:23.012Z,97938.00
2023-01-23T16:30:51.799Z,97947.00
2023-01-23T16:33:19.599Z,97942.00
2023-01-23T16:35:47.692Z,97939.00
2023-01-23T16:38:28.227Z,97946.00
2023-01-23T16:40:59.453Z,97951.00
2023-01-23T16:43:26.456Z,97949.00
2023-01-23T16:45:56.233Z,97950.00
2023-01-23T16:48:27.721Z,97956.00
2023-01-23T16:51:01.199Z,97958.00
2023-01-23T16:53:36.039Z,97959.00
2023-01-23T16:56:04.486Z,97958.00
2023-01-23T16:58:50.592Z,97955.00
2023-01-23T17:01:23.183Z,97954.00
2023-01-23T17:03:59.913Z,97961.00
2023-01-23T17:06:26.695Z,97975.00
2023-01-23T17:08:53.700Z,97962.00
2023-01-23T17:11:28.809Z,97969.00
2023-01-23T17:14:04.100Z,97970.00
2023-01-23T17:16:31.102Z,97968.00
2023-01-23T17:19:01.098Z,97970.00
2023-01-23T17:21:33.436Z,97967.00
2023-01-23T17:24:00.285Z,97972.00
2023-01-23T17:26:27.073Z,97977.00
2023-01-23T17:28:53.937Z,97981.00
2023-01-23T17:31:24.885Z,97973.00
2023-01-23T17:33:52.677Z,97967.00
2023-01-23T17:36:19.842Z,97970.00
2023-01-23T17:38:46.799Z,97963.00
2023-01-23T17:41:17.322Z,97971.00
2023-01-23T17:43:44.731Z,97970.00
2023-01-23T17:46:22.405Z,97971.00
2023-01-23T17:48:49.301Z,97967.00
2023-01-23T17:51:19.036Z,97960.00
2023-01-23T17:53:46.264Z,97968.00
2023-01-23T17:56:13.204Z,97967.00
2023-01-23T17:58:40.049Z,97969.00
2023-01-23T18:01:24.518Z,97968.00
2023-01-23T18:03:53.384Z,97981.00
2023-01-23T18:06:20.254Z,97980.00
2023-01-23T18:08:47.197Z,97974.00
2023-01-23T18:11:23.078Z,97970.00
2023-01-23T18:13:55.822Z,97979.00
2023-01-23T18:16:27.449Z,97982.00
2023-01-23T18:19:01.330Z,97986.00
2023-01-23T18:21:28.815Z,97988.00
2023-01-23T18:23:56.127Z,97993.00
2023-01-23T18:26:55.930Z,97984.00
2023-01-23T18:29:44.272Z,97982.00
2023-01-23T18:32:55.925Z,97966.00
2023-01-23T18:35:52.663Z,97962.00
2023-01-23T18:38:42.028Z,97965.00
2023-01-23T18:41:23.190Z,97969.00
2023-01-23T18:44:07.296Z,97978.00
2023-01-23T18:46:34.426Z,97967.00
2023-01-23T18:49:01.717Z,97969.00
2023-01-23T18:51:37.843Z,97962.00
2023-01-23T18:54:43.980Z,97959.00
2023-01-23T18:57:32.919Z,97964.00
2023-01-23T19:00:34.567Z,97971.00
2023-01-23T19:03:17.626Z,97965.00
2023-01-23T19:05:45.814Z,97977.00
2023-01-23T19:08:28.719Z,97976.00
2023-01-23T19:11:01.681Z,97980.00
2023-01-23T19:13:43.649Z,97984.00
2023-01-23T19:16:33.238Z,97969.00
2023-01-23T19:19:16.422Z,97973.00
2023-01-23T19:21:46.079Z,97984.00
2023-01-23T19:24:19.013Z,97983.00
2023-01-23T19:26:46.672Z,97977.00
2023-01-23T19:29:21.840Z,97978.00
2023-01-23T19:32:03.721Z,97979.00
2023-01-23T19:34:31.817Z,97982.00
2023-01-23T19:36:58.590Z,97988.00
2023-01-23T19:39:25.405Z,97982.00
2023-01-23T19:41:53.212Z,97983.00
2023-01-23T19:44:24.795Z,97987.00
2023-01-23T19:46:52.302Z,97992.00
2023-01-23T19:49:19.345Z,97992.00
2023-01-23T19:51:47.314Z,97991.00
2023-01-23T19:54:15.764Z,97986.00
2023-01-23T19:56:42.825Z,97993.00
2023-01-23T19:59:10.061Z,97995.00
2023-01-23T20:01:49.901Z,97988.00
2023-01-23T20:04:20.698Z,97997.00
2023-01-23T20:06:52.041Z,97991.00
2023-01-23T20:09:19.853Z,97989.00
2023-01-23T20:11:47.217Z,97985.00
2023-01-23T20:14:14.279Z,97986.00
2023-01-23T20:16:43.140Z,97981.00
2023-01-23T20:19:15.393Z,97981.00
2023-01-23T20:21:42.625Z,97984.00
2023-01-23T20:24:09.679Z,97976.00
2023-01-23T20:26:37.051Z,97987.00
2023-01-23T20:29:05.033Z,97983.00
2023-01-23T20:31:32.875Z,97993.00
2023-01-23T20:33:59.889Z,98000.00
2023-01-23T20:36:26.856Z,97997.00
2023-01-23T20:38:54.082Z,97989.00
2023-01-23T20:41:22.274Z,97994.00
2023-01-23T20:43:49.511Z,98000.00
2023-01-23T20:46:16.964Z,97992.00
2023-01-23T20:48:45.073Z,97995.00
2023-01-23T20:51:14.878Z,97988.00
2023-01-23T20:53:42.677Z,97991.00
2023-01-23T20:56:19.106Z,97995.00
2023-01-23T20:59:07.793Z,97996.00
2023-01-23T21:01:56.484Z,98000.00
2023-01-23T21:04:30.005Z,97988.00
2023-01-23T21:06:57.308Z,97994.00
2023-01-23T21:09:24.166Z,97996.00
2023-01-23T21:11:52.114Z,97996.00
2023-01-23T21:14:20.130Z,97999.00
2023-01-23T21:16:47.674Z,97996.00
2023-01-23T21:19:15.910Z,97994.00
2023-01-23T21:21:43.112Z,97976.00
2023-01-23T21:24:10.103Z,97977.00
2023-01-23T21:26:37.493Z,97979.00
2023-01-23T21:29:05.647Z,97977.00
2023-01-23T21:31:35.453Z,97987.00
2023-01-23T21:34:05.812Z,97977.00
2023-01-23T21:36:32.794Z,97979.00
2023-01-23T21:39:00.445Z,97985.00
2023-01-23T21:41:27.365Z,97984.00
2023-01-23T21:43:54.182Z,97987.00
2023-01-23T21:46:21.238Z,97988.00
2023-01-23T21:48:48.127Z,97979.00
2023-01-23T21:51:21.839Z,97979.00
2023-01-23T21:53:50.365Z,97981.00
2023-01-23T21:56:20.760Z,97973.00
2023-01-23T21:58:48.376Z,97969.00
2023-01-23T22:01:36.043Z,97983.00
2023-01-23T22:04:13.354Z,97988.00
2023-01-23T22:06:43.020Z,98001.00
2023-01-23T22:09:14.931Z,97995.00
2023-01-23T22:11:41.712Z,97988.00
2023-01-23T22:14:08.508Z,97981.00
2023-01-23T22:16:47.985Z,97988.00
2023-01-23T22:19:18.677Z,98001.00
2023-01-23T22:21:46.577Z,97990.00
2023-01-23T22:24:14.560Z,97998.00
2023-01-23T22:26:41.414Z,97999.00
2023-01-23T22:29:08.775Z,98009.00
2023-01-23T22:31:35.739Z,97993.00
2023-01-23T22:34:02.623Z,97987.00
2023-01-23T22:36:29.612Z,97987.00
2023-01-23T22:38:56.453Z,97997.00
2023-01-23T22:41:24.038Z,98002.00
2023-01-23T22:43:59.259Z,98006.00
2023-01-23T22:46:26.613Z,97995.00
2023-01-23T22:48:53.571Z,98008.00
2023-01-23T22:51:25.044Z,98005.00
2023-01-23T22:53:56.421Z,97998.00
2023-01-23T22:56:25.229Z,97999.00
2023-01-23T22:58:54.489Z,97985.00
2023-01-23T23:01:27.096Z,98003.00
2023-01-23T23:03:58.922Z,97989.00
2023-01-23T23:06:26.644Z,98006.00
2023-01-23T23:08:53.898Z,97998.00
2023-01-23T23:11:23.835Z,97991.00
2023-01-23T23:13:51.400Z,98000.00
2023-01-23T23:16:22.249Z,98000.00
2023-01-23T23:18:52.707Z,97987.00
2023-01-23T23:21:25.999Z,97992.00
2023-01-23T23:23:57.194Z,97994.00
2023-01-23T23:26:25.032Z,97998.00
2023-01-23T23:28:52.034Z,97996.00
2023-01-23T23:31:18.991Z,97988.00
2023-01-23T23:33:46.053Z,97995.00
2023-01-23T23:36:12.827Z,98001.00
2023-01-23T23:38:39.573Z,97999.00
2023-01-23T23:41:14.016Z,98001.00
2023-01-23T23:43:41.637Z,98001.00
2023-01-23T23:46:09.959Z,98002.00
2023-01-23T23:48:38.220Z,97996.00
2023-01-23T23:51:08.646Z,97993.00
2023-01-23T23:53:36.055Z,97985.00
2023-01-23T23:56:03.959Z,97987.00
2023-01-23T23:58:30.857Z,97987.00
